createdAt,value
2018-11-28T00:02:21.677Z,18.65
2018-11-28T00:04:49.867Z,21.87
2018-11-28T00:07:18.069Z,15.95
2018-11-28T00:09:46.259Z,23.30
2018-11-28T00:12:14.500Z,18.35
2018-11-28T00:14:42.702Z,15.20
2018-11-28T00:17:10.917Z,13.20
2018-11-28T00:19:39.280Z,22.20
2018-11-28T00:22:07.548Z,22.20
2018-11-28T00:24:35.745Z,19.80
2018-11-28T00:27:03.924Z,15.43
2018-11-28T00:29:32.137Z,20.30
2018-11-28T00:32:00.339Z,17.57
2018-11-28T00:34:28.534Z,19.57
2018-11-28T00:36:56.746Z,17.80
2018-11-28T00:39:24.948Z,19.20
2018-11-28T00:41:53.211Z,16.27
2018-11-28T00:44:21.458Z,15.15
2018-11-28T00:46:49.655Z,15.40
2018-11-28T00:49:17.880Z,17.85
2018-11-28T00:51:46.144Z,18.52
2018-11-28T00:54:14.382Z,17.40
2018-11-28T00:56:42.629Z,18.70
2018-11-28T00:59:10.845Z,14.78
2018-11-28T01:01:39.030Z,13.30
2018-11-28T01:04:07.304Z,17.73
2018-11-28T01:06:35.535Z,15.00
2018-11-28T01:09:04.155Z,14.83
2018-11-28T01:11:32.353Z,17.23
2018-11-28T01:14:00.573Z,15.03
2018-11-28T01:16:28.744Z,17.07
2018-11-28T01:18:56.982Z,16.95
2018-11-28T01:21:25.194Z,17.42
2018-11-28T01:23:53.436Z,16.07
2018-11-28T01:26:21.672Z,15.30
2018-11-28T01:28:49.899Z,18.30
2018-11-28T01:31:18.125Z,18.20
2018-11-28T01:33:46.313Z,18.95
2018-11-28T01:36:14.521Z,15.50
2018-11-28T01:38:42.700Z,13.40
2018-11-28T01:41:10.922Z,16.17
2018-11-28T01:43:39.117Z,15.60
2018-11-28T01:46:07.328Z,13.00
2018-11-28T01:48:35.496Z,12.65
2018-11-28T01:51:03.688Z,13.95
2018-11-28T01:53:31.881Z,15.85
2018-11-28T01:56:00.077Z,12.90
2018-11-28T01:58:28.292Z,13.85
2018-11-28T02:00:56.501Z,13.90
2018-11-28T02:03:24.723Z,13.55
2018-11-28T02:05:52.941Z,14.58
2018-11-28T02:08:21.146Z,16.48
2018-11-28T02:10:49.352Z,16.32
2018-11-28T02:13:17.598Z,14.65
2018-11-28T02:15:45.821Z,14.95
2018-11-28T02:18:14.020Z,11.53
2018-11-28T02:20:42.290Z,12.53
2018-11-28T02:23:10.520Z,15.60
2018-11-28T02:25:38.730Z,13.80
2018-11-28T02:28:06.961Z,15.13
2018-11-28T02:30:35.180Z,19.07
2018-11-28T02:33:03.452Z,18.57
2018-11-28T02:35:31.674Z,15.18
2018-11-28T02:37:59.874Z,13.53
2018-11-28T02:40:28.099Z,17.82
2018-11-28T02:42:56.308Z,14.25
2018-11-28T02:45:24.527Z,10.25
2018-11-28T02:47:52.943Z,16.93
2018-11-28T02:50:21.161Z,16.60
2018-11-28T02:52:49.361Z,15.40
2018-11-28T02:55:18.135Z,17.55
2018-11-28T02:57:48.331Z,18.85
2018-11-28T03:00:18.464Z,15.63
2018-11-28T03:02:46.709Z,13.65
2018-11-28T03:05:14.965Z,20.40
2018-11-28T03:07:43.170Z,21.20
2018-11-28T03:10:14.444Z,18.70
2018-11-28T03:12:42.644Z,15.50
2018-11-28T03:15:12.620Z,18.15
2018-11-28T03:17:40.851Z,13.50
2018-11-28T03:20:10.093Z,14.53
2018-11-28T03:22:38.268Z,12.82
2018-11-28T03:25:08.289Z,14.73
2018-11-28T03:27:36.476Z,14.35
2018-11-28T03:30:08.919Z,11.63
2018-11-28T03:32:37.108Z,14.83
2018-11-28T03:35:06.106Z,13.90
2018-11-28T03:37:34.289Z,12.93
2018-11-28T03:40:02.479Z,13.20
2018-11-28T03:42:30.664Z,13.62
2018-11-28T03:44:58.849Z,12.47
2018-11-28T03:47:27.046Z,16.45
2018-11-28T03:49:55.235Z,20.77
2018-11-28T03:52:23.421Z,28.83
2018-11-28T03:54:51.618Z,26.05
2018-11-28T03:57:19.825Z,38.83
2018-11-28T03:59:48.033Z,51.30
2018-11-28T04:02:16.265Z,55.73
2018-11-28T04:04:44.442Z,55.92
2018-11-28T04:07:12.628Z,45.38
2018-11-28T04:09:40.819Z,93.58
2018-11-28T04:12:09.001Z,52.05
2018-11-28T04:14:37.252Z,70.22
2018-11-28T04:17:05.729Z,75.25
2018-11-28T04:19:33.918Z,48.65
2018-11-28T04:22:02.110Z,49.88
2018-11-28T04:24:30.303Z,62.48
2018-11-28T04:26:58.496Z,29.30
2018-11-28T04:29:26.681Z,30.80
2018-11-28T04:31:54.866Z,59.85
2018-11-28T04:34:23.037Z,37.80
2018-11-28T04:36:51.233Z,51.42
2018-11-28T04:39:19.421Z,52.03
2018-11-28T04:41:47.608Z,31.93
2018-11-28T04:44:15.777Z,42.58
2018-11-28T04:46:43.956Z,47.45
2018-11-28T04:49:12.145Z,75.35
2018-11-28T04:51:40.340Z,26.77
2018-11-28T04:54:08.528Z,21.35
2018-11-28T04:56:36.713Z,19.32
2018-11-28T04:59:05.212Z,23.67
2018-11-28T05:01:33.380Z,28.05
2018-11-28T05:04:01.541Z,19.45
2018-11-28T05:07:42.065Z,25.43
2018-11-28T05:10:12.345Z,20.55
2018-11-28T05:12:40.521Z,16.70
2018-11-28T05:15:10.840Z,19.75
2018-11-28T05:17:39.108Z,15.53
2018-11-28T05:20:08.940Z,27.50
2018-11-28T05:22:37.148Z,21.70
2018-11-28T05:25:07.861Z,19.50
2018-11-28T05:27:36.037Z,21.35
2018-11-28T05:30:05.520Z,16.97
2018-11-28T05:32:33.677Z,16.70
2018-11-28T05:35:01.852Z,19.35
2018-11-28T05:37:30.009Z,22.67
2018-11-28T05:39:58.175Z,15.85
2018-11-28T05:42:26.353Z,22.93
2018-11-28T05:44:54.546Z,20.15
2018-11-28T05:47:22.724Z,23.60
2018-11-28T05:49:50.897Z,20.00
2018-11-28T05:52:19.074Z,25.40
2018-11-28T05:54:47.249Z,21.60
2018-11-28T05:57:15.440Z,19.70
2018-11-28T05:59:43.624Z,16.35
2018-11-28T06:02:11.808Z,22.00
2018-11-28T06:04:40.012Z,25.17
2018-11-28T06:07:08.189Z,19.30
2018-11-28T06:09:36.397Z,21.17
2018-11-28T06:12:04.577Z,25.15
2018-11-28T06:14:32.764Z,34.10
2018-11-28T06:17:00.948Z,22.15
2018-11-28T06:19:29.157Z,34.73
2018-11-28T06:21:57.341Z,26.23
2018-11-28T06:24:25.536Z,38.98
2018-11-28T06:26:53.712Z,40.65
2018-11-28T06:29:21.924Z,57.15
2018-11-28T06:31:50.101Z,65.03
2018-11-28T06:34:18.300Z,66.22
2018-11-28T06:36:46.489Z,70.62
2018-11-28T06:39:14.703Z,58.30
2018-11-28T06:41:42.896Z,74.77
2018-11-28T06:44:11.544Z,72.37
2018-11-28T06:46:39.741Z,53.95
2018-11-28T06:49:07.945Z,62.95
2018-11-28T06:51:36.124Z,83.47
2018-11-28T06:54:04.488Z,68.83
2018-11-28T06:56:32.653Z,63.35
2018-11-28T06:59:00.876Z,61.35
2018-11-28T07:01:29.083Z,74.10
2018-11-28T07:03:57.275Z,67.50
2018-11-28T07:06:25.489Z,62.50
2018-11-28T07:08:53.681Z,74.00
2018-11-28T07:11:21.870Z,93.40
2018-11-28T22:55:31.473Z,46.35
2018-11-28T22:57:59.692Z,48.65
2018-11-28T23:00:33.421Z,49.23
2018-11-28T23:03:06.279Z,50.45
2018-11-28T23:05:36.181Z,45.58
2018-11-28T23:08:06.020Z,44.25
2018-11-28T23:10:34.210Z,45.95
2018-11-28T23:13:02.462Z,42.13
2018-11-28T23:15:30.652Z,43.65
2018-11-28T23:17:58.854Z,41.92
2018-11-28T23:20:27.076Z,43.05
2018-11-28T23:22:55.274Z,44.93
2018-11-28T23:25:23.567Z,44.33
2018-11-28T23:27:51.757Z,46.35
2018-11-28T23:30:21.680Z,45.00
2018-11-28T23:32:50.536Z,43.70
2018-11-28T23:35:18.880Z,48.08
2018-11-28T23:37:48.123Z,47.10
2018-11-28T23:40:19.516Z,44.20
2018-11-28T23:42:47.821Z,42.15
2018-11-28T23:45:16.308Z,44.43
2018-11-28T23:47:44.500Z,39.50
2018-11-28T23:50:16.606Z,42.48
2018-11-28T23:52:44.897Z,43.92
2018-11-28T23:55:15.273Z,42.15
2018-11-28T23:57:43.460Z,42.62
